Time;durP1;ratioP1;P1;durP2;ratioP2;P2;SDS_P1;SDS_P2;PMS_P1;PMS_P2;Temp;Humidity;BMP_temperature;BMP_pressure;BME280_temperature;BME280_humidity;BME280_pressure;Samples;Min_cycle;Max_cycle;Signal;HPM_P1;HPM_P2
2022/06/01 00:03:57;;;;;;;23.40;16.77;;;;;;;9.67;100.00;101245.75;10291791;28;20030;-75
2022/06/01 00:08:57;;;;;;;25.42;16.40;;;;;;;9.67;100.00;101233.88;10257075;28;20043;-75
2022/06/01 00:13:58;;;;;;;21.02;15.20;;;;;;;9.79;100.00;101242.97;10274819;28;20039;-76
2022/06/01 00:18:58;;;;;;;17.98;14.05;;;;;;;9.81;100.00;101262.00;10281344;28;20039;-75
2022/06/01 00:23:59;;;;;;;20.13;15.18;;;;;;;9.85;100.00;101265.94;10299055;28;20113;-75
2022/06/01 00:28:59;;;;;;;21.00;16.00;;;;;;;9.92;100.00;101263.06;10265109;28;20035;-74
2022/06/01 00:34:01;;;;;;;20.98;15.98;;;;;;;9.96;100.00;101264.25;10297997;28;20126;-75
2022/06/01 00:39:02;;;;;;;20.30;15.45;;;;;;;9.99;100.00;101261.03;10279231;28;20071;-75
2022/06/01 00:44:03;;;;;;;17.73;14.35;;;;;;;9.98;100.00;101256.59;10278517;28;20046;-75
2022/06/01 00:49:17;;;;;;;19.33;14.98;;;;;;;9.96;100.00;101242.25;10278893;28;20432;-74
2022/06/01 00:54:17;;;;;;;18.60;15.00;;;;;;;9.84;100.00;101237.59;10280617;28;20043;-75
2022/06/01 00:59:19;;;;;;;20.83;16.02;;;;;;;9.92;100.00;101244.63;10263635;28;20042;-75
2022/06/01 01:04:20;;;;;;;28.55;15.93;;;;;;;9.88;100.00;101247.06;10263074;28;20502;-75
2022/06/01 01:09:20;;;;;;;18.83;15.73;;;;;;;9.89;100.00;101243.19;10261127;28;20054;-75
2022/06/01 01:14:23;;;;;;;20.75;15.02;;;;;;;9.91;100.00;101245.72;10294055;28;20050;-77
2022/06/01 01:19:37;;;;;;;20.38;15.88;;;;;;;9.95;100.00;101240.59;10296064;28;20058;-76
2022/06/01 01:25:07;;;;;;;23.30;16.63;;;;;;;9.98;100.00;101240.09;10278765;28;20042;-76
2022/06/01 01:30:26;;;;;;;22.85;17.20;;;;;;;9.98;100.00;101229.09;10280831;28;20038;-76
2022/06/01 01:35:26;;;;;;;24.60;16.77;;;;;;;10.00;100.00;101232.44;10295484;28;20043;-76
2022/06/01 01:40:27;;;;;;;25.80;17.80;;;;;;;10.00;100.00;101221.44;10294712;28;20039;-77
2022/06/01 01:45:29;;;;;;;25.67;18.00;;;;;;;9.99;100.00;101217.84;10295011;28;20074;-76
2022/06/01 01:50:30;;;;;;;26.48;19.20;;;;;;;10.01;100.00;101220.38;10272896;28;20043;-75
2022/06/01 01:55:54;;;;;;;26.08;19.67;;;;;;;10.01;100.00;101220.38;10253959;29;20071;-76
2022/06/01 02:01:00;;;;;;;23.27;18.88;;;;;;;10.01;100.00;101212.13;10222994;29;20089;-76
2022/06/01 02:06:08;;;;;;;26.23;20.23;;;;;;;10.02;100.00;101209.09;10237502;29;20495;-77
2022/06/01 02:16:39;;;;;;;29.55;20.30;;;;;;;9.95;100.00;101208.41;10278946;28;20074;-77
2022/06/01 02:21:39;;;;;;;28.00;20.58;;;;;;;9.88;100.00;101199.44;10276388;28;20134;-76
2022/06/01 02:26:40;;;;;;;27.38;21.42;;;;;;;9.79;100.00;101193.47;10260575;28;20034;-75
2022/06/01 02:31:40;;;;;;;28.13;22.13;;;;;;;9.71;100.00;101191.09;10276351;28;20035;-76
2022/06/01 02:36:41;;;;;;;33.53;24.08;;;;;;;9.70;100.00;101200.44;10260013;28;20050;-75
2022/06/01 02:47:00;;;;;;;35.47;25.45;;;;;;;9.76;100.00;101188.47;10278042;28;20110;-75
2022/06/01 02:52:02;;;;;;;31.83;24.35;;;;;;;9.80;100.00;101206.16;10292841;28;20055;-76
2022/06/01 02:57:03;;;;;;;32.70;24.02;;;;;;;9.81;100.00;101213.31;10259998;28;20035;-76
2022/06/01 03:02:06;;;;;;;34.03;22.85;;;;;;;8.38;100.00;100979.25;10293044;28;20035;-76
2022/06/01 03:07:06;;;;;;;31.38;23.35;;;;;;;9.83;100.00;101211.16;10254951;28;20099;-76
2022/06/01 03:12:07;;;;;;;28.65;22.33;;;;;;;9.85;100.00;101220.00;10238229;28;20074;-77
2022/06/01 03:17:08;;;;;;;32.05;22.55;;;;;;;9.85;100.00;101213.69;10237541;29;20062;-75
2022/06/01 03:22:08;;;;;;;31.25;22.38;;;;;;;9.81;100.00;101207.00;10254054;29;20047;-76
2022/06/01 03:27:09;;;;;;;27.83;22.70;;;;;;;9.86;100.00;101221.69;10235938;29;20098;-77
2022/06/01 03:32:09;;;;;;;32.58;23.45;;;;;;;9.73;100.00;101199.94;10252728;29;20027;-76
2022/06/01 03:37:10;;;;;;;31.88;23.10;;;;;;;9.87;100.00;101223.34;10235643;29;20043;-79
2022/06/01 03:42:10;;;;;;;32.90;22.25;;;;;;;9.89;100.00;101231.38;10285173;28;20046;-75
2022/06/01 03:47:11;;;;;;;29.42;21.67;;;;;;;9.85;100.00;101220.00;10274022;28;20113;-76
2022/06/01 03:52:11;;;;;;;32.47;22.83;;;;;;;9.88;100.00;101230.53;10265417;28;20126;-76
2022/06/01 03:57:12;;;;;;;28.35;21.40;;;;;;;9.68;100.00;101192.41;10281845;28;20103;-76
2022/06/01 04:02:13;;;;;;;34.70;22.88;;;;;;;9.96;100.00;101236.75;10282532;28;20030;-76
2022/06/01 04:07:13;;;;;;;29.38;21.48;;;;;;;9.94;100.00;101225.13;10298320;28;20067;-77
2022/06/01 04:12:14;;;;;;;22.98;19.90;;;;;;;10.02;100.00;101236.59;10296594;28;20042;-75
2022/06/01 04:17:14;;;;;;;23.88;19.25;;;;;;;9.97;100.00;101232.94;10297895;28;20050;-75
2022/06/01 04:22:15;;;;;;;23.45;18.58;;;;;;;10.11;100.00;101248.09;10280639;28;20039;-75
2022/06/01 04:27:16;;;;;;;23.45;18.95;;;;;;;10.19;100.00;101239.47;10249483;28;20038;-75
2022/06/01 04:32:29;;;;;;;27.60;20.05;;;;;;;10.27;100.00;101238.22;10280673;28;20495;-74
2022/06/01 04:37:29;;;;;;;33.33;20.70;;;;;;;10.39;100.00;101236.31;10279762;28;20065;-75
2022/06/01 04:42:30;;;;;;;28.73;20.40;;;;;;;10.46;100.00;101231.50;10278900;28;20047;-75
2022/06/01 04:47:30;;;;;;;22.17;18.40;;;;;;;10.61;100.00;101230.97;10279156;28;20054;-76
2022/06/01 04:52:31;;;;;;;23.92;18.25;;;;;;;10.68;100.00;101225.31;10280318;28;20062;-76
2022/06/01 04:57:32;;;;;;;21.92;17.95;;;;;;;10.79;100.00;101223.56;10279795;28;20042;-76
2022/06/01 05:02:32;;;;;;;26.83;19.30;;;;;;;10.82;100.00;101228.59;10278640;28;20046;-75
2022/06/01 05:07:33;;;;;;;24.83;20.08;;;;;;;10.82;100.00;101231.34;10294538;28;20054;-76
2022/06/01 05:12:34;;;;;;;24.67;19.73;;;;;;;10.84;100.00;101231.94;10292704;28;20047;-76
2022/06/01 05:17:34;;;;;;;27.17;20.23;;;;;;;10.95;100.00;101231.03;10287031;28;20053;-76
2022/06/01 05:22:35;;;;;;;30.13;19.77;;;;;;;10.83;100.00;101181.53;10295956;28;20039;-76
2022/06/01 05:27:35;;;;;;;26.00;19.83;;;;;;;11.28;100.00;101230.22;10279042;28;20043;-74
2022/06/01 05:32:36;;;;;;;24.20;18.95;;;;;;;11.46;100.00;101229.16;10296647;28;20039;-76
2022/06/01 05:37:36;;;;;;;27.20;18.52;;;;;;;11.57;100.00;101232.06;10278697;28;20042;-76
2022/06/01 05:42:37;;;;;;;27.02;19.42;;;;;;;11.71;100.00;101242.47;10292510;28;20039;-77
2022/06/01 05:47:37;;;;;;;26.85;19.65;;;;;;;11.82;100.00;101243.47;10276138;28;20037;-77
2022/06/01 05:52:38;;;;;;;20.85;18.05;;;;;;;11.99;100.00;101243.47;10295052;28;20102;-77
2022/06/01 05:57:38;;;;;;;23.67;18.45;;;;;;;12.14;100.00;101236.50;10294797;28;20050;-76
2022/06/01 06:02:39;;;;;;;21.92;17.30;;;;;;;12.18;100.00;101245.94;10295236;28;20060;-73
2022/06/01 06:07:39;;;;;;;18.00;16.10;;;;;;;12.16;100.00;101240.66;10295255;28;20043;-76
2022/06/01 06:12:41;;;;;;;20.15;16.10;;;;;;;12.26;100.00;101237.22;10293022;28;20031;-77
2022/06/01 06:17:41;;;;;;;20.58;16.98;;;;;;;12.29;100.00;101251.31;10276586;28;20094;-78
2022/06/01 06:22:42;;;;;;;18.10;16.20;;;;;;;12.41;100.00;101253.13;10276715;28;20134;-77
2022/06/01 06:27:42;;;;;;;21.63;17.27;;;;;;;12.41;100.00;101255.88;10260130;28;20034;-78
2022/06/01 06:32:43;;;;;;;23.38;16.85;;;;;;;12.44;100.00;101261.75;10294724;28;20039;-77
2022/06/01 06:37:43;;;;;;;27.70;18.70;;;;;;;12.46;100.00;101275.25;10276308;28;20042;-78
2022/06/01 06:42:44;;;;;;;19.25;16.65;;;;;;;12.48;100.00;101268.38;10275187;28;20050;-76
2022/06/01 06:47:44;;;;;;;19.55;16.67;;;;;;;12.34;100.00;101249.72;10260009;28;20047;-76
2022/06/01 06:52:45;;;;;;;16.75;14.63;;;;;;;12.42;100.00;101280.50;10276565;28;20038;-76
2022/06/01 06:57:45;;;;;;;19.15;15.52;;;;;;;12.37;100.00;101285.09;10276072;28;20394;-76
2022/06/01 07:02:46;;;;;;;20.10;17.60;;;;;;;12.24;100.00;101295.44;10293948;28;20058;-77
2022/06/01 07:07:46;;;;;;;23.55;18.40;;;;;;;12.04;100.00;101295.16;10236330;29;20039;-76
2022/06/01 07:12:46;;;;;;;23.60;19.45;;;;;;;12.01;100.00;101302.00;10267793;28;20057;-77
2022/06/01 07:17:47;;;;;;;37.72;24.55;;;;;;;12.11;100.00;101307.69;10292448;28;20043;-77
2022/06/01 07:22:48;;;;;;;33.85;25.95;;;;;;;12.26;100.00;101304.28;10273096;28;20039;-76
2022/06/01 07:27:51;;;;;;;29.58;23.05;;;;;;;12.44;100.00;101300.41;10274368;28;20095;-76
2022/06/01 07:32:51;;;;;;;30.40;21.75;;;;;;;12.84;100.00;101317.72;10261458;28;20042;-76
2022/06/01 07:43:11;;;;;;;18.83;15.10;;;;;;;13.39;100.00;101310.28;10278589;28;20045;-76
2022/06/01 07:48:11;;;;;;;14.05;10.35;;;;;;;13.73;100.00;101300.63;10261856;28;20039;-76
2022/06/01 07:53:12;;;;;;;12.82;10.02;;;;;;;13.74;100.00;101301.44;10292152;28;20035;-76
2022/06/01 07:58:12;;;;;;;11.48;9.98;;;;;;;13.79;100.00;101297.88;10287546;28;20039;-77
2022/06/01 08:03:14;;;;;;;14.18;9.98;;;;;;;14.12;100.00;101297.56;10277944;28;20027;-77
2022/06/01 08:08:15;;;;;;;15.23;10.23;;;;;;;14.44;100.00;101298.56;10278066;28;20039;-77
2022/06/01 08:13:15;;;;;;;12.27;9.82;;;;;;;14.51;100.00;101299.13;10283902;28;20133;-77
2022/06/01 08:18:20;;;;;;;11.65;9.32;;;;;;;14.66;100.00;101301.19;10296624;28;20047;-79
2022/06/01 08:23:22;;;;;;;11.63;8.20;;;;;;;14.82;100.00;101310.38;10299403;28;20553;-77
2022/06/01 08:28:22;;;;;;;11.85;7.60;;;;;;;15.09;100.00;101297.16;10278646;28;20047;-76
2022/06/01 08:33:23;;;;;;;12.57;7.97;;;;;;;15.42;100.00;101297.75;10241924;28;20130;-77
2022/06/01 08:38:24;;;;;;;15.02;9.07;;;;;;;15.52;100.00;101303.31;10240256;28;20035;-77
2022/06/01 08:43:26;;;;;;;15.55;8.23;;;;;;;15.70;100.00;101299.13;10264106;28;20043;-77
2022/06/01 08:48:39;;;;;;;11.35;8.52;;;;;;;15.73;100.00;101281.13;10243378;28;20042;-77
2022/06/01 08:53:40;;;;;;;8.13;6.15;;;;;;;15.87;100.00;101292.47;10243139;28;20047;-75
2022/06/01 08:59:02;;;;;;;9.80;6.55;;;;;;;15.74;100.00;101296.66;10244822;28;20514;-77
2022/06/01 09:04:19;;;;;;;8.18;6.20;;;;;;;15.97;100.00;101281.34;10279701;28;20051;-79
2022/06/01 09:09:23;;;;;;;;;;;;;;;16.38;100.00;101274.84;10260435;28;20051;-78
2022/06/01 09:14:26;;;;;;;6.05;5.45;;;;;;;16.20;100.00;101290.19;10287470;28;19918;-77
2022/06/01 09:19:27;;;;;;;7.93;5.40;;;;;;;16.37;100.00;101298.19;10279308;28;20050;-77
2022/06/01 09:24:34;;;;;;;6.10;5.35;;;;;;;16.27;100.00;101291.56;10280303;28;20082;-79
2022/06/01 09:29:45;;;;;;;11.65;8.00;;;;;;;15.94;100.00;101309.69;10279382;28;20043;-76
2022/06/01 09:34:47;;;;;;;14.13;9.93;;;;;;;15.38;100.00;101312.44;10278959;28;20058;-77
2022/06/01 09:39:56;;;;;;;10.57;8.10;;;;;;;14.87;100.00;101335.34;10246137;28;20486;-75
2022/06/01 09:44:58;;;;;;;9.02;5.85;;;;;;;14.58;100.00;101321.94;10294533;28;20039;-77
2022/06/01 09:49:59;;;;;;;3.78;1.90;;;;;;;14.38;100.00;101328.16;10238672;28;20035;-77
2022/06/01 09:55:25;;;;;;;1.80;1.38;;;;;;;14.29;100.00;101311.22;10245274;28;20057;-77
2022/06/01 10:06:05;;;;;;;1.05;0.95;;;;;;;15.85;100.00;101301.06;10294271;28;20047;-73
2022/06/01 10:11:26;;;;;;;3.80;1.60;;;;;;;15.96;100.00;101296.38;10278433;28;20122;-75
2022/06/01 10:16:36;;;;;;;3.08;1.63;;;;;;;15.74;100.00;101291.94;10261900;28;20046;-77
2022/06/01 10:21:54;;;;;;;2.28;1.77;;;;;;;15.72;100.00;101298.88;10276615;28;20062;-79
2022/06/01 10:27:00;;;;;;;1.45;1.13;;;;;;;16.24;100.00;101297.66;10276611;28;20042;-78
2022/06/01 10:32:10;;;;;;;2.27;1.30;;;;;;;16.99;100.00;101274.59;10261856;28;20039;-78
2022/06/01 10:37:32;;;;;;;1.85;0.90;;;;;;;16.71;98.69;101290.81;10261255;28;20394;-77
2022/06/01 10:48:31;;;;;;;1.83;1.35;;;;;;;17.86;86.79;101268.34;10238376;29;20043;-78
2022/06/01 10:53:42;;;;;;;3.88;1.70;;;;;;;18.43;86.84;101278.84;10236612;29;20047;-77
2022/06/01 10:58:42;;;;;;;1.45;1.35;;;;;;;19.80;80.26;101255.59;10236630;28;20039;-77
2022/06/01 11:04:08;;;;;;;1.42;1.23;;;;;;;19.93;74.89;101243.63;10257875;28;20047;-75
2022/06/01 11:09:14;;;;;;;2.45;1.10;;;;;;;18.21;81.98;101285.81;10274754;28;20074;-80
2022/06/01 11:14:21;;;;;;;2.55;1.80;;;;;;;17.30;100.00;101307.75;10263521;28;20094;-78
2022/06/01 11:19:43;;;;;;;3.33;2.15;;;;;;;16.25;100.00;101324.34;10258507;28;20106;-77
2022/06/01 11:25:07;;;;;;;5.25;2.13;;;;;;;15.89;100.00;101324.41;10252382;29;20664;-74
2022/06/01 11:30:20;;;;;;;4.20;2.33;;;;;;;16.04;100.00;101331.03;10262431;28;20043;-76
2022/06/01 11:35:30;;;;;;;4.85;3.63;;;;;;;17.17;100.00;101339.00;10252042;28;20038;-78
2022/06/01 11:40:36;;;;;;;4.75;3.60;;;;;;;17.23;100.00;101313.63;10269881;28;20044;-77
2022/06/01 11:45:43;;;;;;;3.33;3.00;;;;;;;18.01;97.18;101308.31;10234369;28;20043;-78
2022/06/01 11:50:54;;;;;;;;;;;;;;;17.61;92.71;101304.72;10253856;28;20051;-78
2022/06/01 11:56:08;;;;;;;2.95;2.13;;;;;;;16.84;96.18;101321.94;10262463;28;20012;-77
2022/06/01 12:01:41;;;;;;;2.17;1.70;;;;;;;15.93;93.19;101314.38;10236750;28;20123;-78
2022/06/01 12:06:48;;;;;;;4.47;1.67;;;;;;;15.46;100.00;101347.94;10255894;28;20047;-78
2022/06/01 12:11:49;;;;;;;3.50;1.98;;;;;;;14.63;100.00;101374.59;10257508;28;20047;-75
2022/06/01 12:17:17;;;;;;;5.93;2.90;;;;;;;13.75;100.00;101397.22;10279143;28;20054;-77
2022/06/01 12:28:31;;;;;;;22.20;7.93;;;;;;;11.99;100.00;101414.56;10278205;28;20035;-75
2022/06/01 12:33:32;;;;;;;20.35;8.38;;;;;;;11.65;100.00;101419.19;10259826;28;20123;-73
2022/06/01 12:38:37;;;;;;;17.05;8.82;;;;;;;11.70;100.00;101417.34;10260000;28;20093;-73
2022/06/01 12:43:37;;;;;;;55.25;12.30;;;;;;;11.98;100.00;101423.09;10260633;28;20032;-72
2022/06/01 12:48:37;;;;;;;21.73;11.65;;;;;;;12.40;100.00;101417.13;10243650;28;20038;-72
2022/06/01 12:53:42;;;;;;;17.25;11.27;;;;;;;12.82;100.00;101422.16;10260386;28;20307;-74
2022/06/01 12:58:43;;;;;;;16.10;11.27;;;;;;;13.30;100.00;101428.84;10258219;28;20039;-72
2022/06/01 13:03:51;;;;;;;13.02;10.23;;;;;;;13.84;100.00;101423.31;10241982;28;20171;-72
2022/06/01 13:09:06;;;;;;;9.57;7.80;;;;;;;14.44;100.00;101410.19;10242319;28;20039;-73
2022/06/01 13:14:09;;;;;;;6.90;6.07;;;;;;;15.72;100.00;101396.03;10274236;28;20067;-73
2022/06/01 13:19:24;;;;;;;8.13;5.80;;;;;;;16.72;100.00;101375.91;10277618;28;20039;-73
2022/06/01 13:24:25;;;;;;;5.75;5.15;;;;;;;17.06;100.00;101389.13;10245289;28;20035;-74
2022/06/01 13:29:33;;;;;;;6.30;5.00;;;;;;;16.70;100.00;101389.25;10242356;28;20035;-74
2022/06/01 13:34:48;;;;;;;3.75;3.17;;;;;;;16.72;100.00;101369.50;10257605;28;20051;-74
2022/06/01 13:39:59;;;;;;;4.70;4.20;;;;;;;15.59;100.00;101391.84;10256965;28;20039;-75
2022/06/01 13:45:03;;;;;;;5.32;4.82;;;;;;;15.07;100.00;101412.25;10223997;28;20054;-75
2022/06/01 13:50:18;;;;;;;6.30;5.43;;;;;;;14.26;100.00;101419.78;10276263;28;20039;-75
2022/06/01 13:55:29;;;;;;;5.72;4.63;;;;;;;12.90;100.00;101358.16;10239728;28;20057;-75
2022/06/01 14:00:36;;;;;;;8.48;6.43;;;;;;;12.80;100.00;101432.63;10241785;28;20414;-77
2022/06/01 14:05:49;;;;;;;9.85;8.25;;;;;;;12.81;100.00;101454.44;10256394;28;20038;-75
2022/06/01 14:10:50;;;;;;;14.07;11.93;;;;;;;12.96;100.00;101448.31;10263628;28;20102;-74
2022/06/01 14:15:51;;;;;;;13.80;11.75;;;;;;;13.70;100.00;101455.25;10259721;28;20038;-73
2022/06/01 14:20:52;;;;;;;10.93;9.82;;;;;;;14.54;100.00;101465.69;10261433;28;20034;-73
2022/06/01 14:31:22;;;;;;;6.75;5.78;;;;;;;15.44;100.00;101455.59;10278238;28;20066;-74
2022/06/01 14:36:23;;;;;;;9.63;6.18;;;;;;;14.78;100.00;101453.38;10276994;28;20046;-75
2022/06/01 14:41:31;;;;;;;9.07;5.20;;;;;;;14.65;100.00;101455.53;10276940;28;20039;-75
2022/06/01 14:46:32;;;;;;;5.80;4.55;;;;;;;15.31;100.00;101455.00;10262009;28;20050;-74
2022/06/01 14:51:37;;;;;;;5.35;4.22;;;;;;;15.96;100.00;101457.44;10292917;28;20101;-73
2022/06/01 14:56:38;;;;;;;7.45;3.88;;;;;;;15.85;100.00;101461.28;10274875;28;20518;-73
2022/06/01 15:01:41;;;;;;;3.15;2.85;;;;;;;15.97;100.00;101463.81;10275402;28;20035;-73
2022/06/01 15:06:43;;;;;;;1.60;1.17;;;;;;;15.88;100.00;101453.25;10292718;28;20034;-76
2022/06/01 15:11:44;;;;;;;1.00;0.90;;;;;;;16.30;100.00;101451.31;10258908;28;20070;-74
2022/06/01 15:16:48;;;;;;;2.03;0.75;;;;;;;17.16;100.00;101452.25;10292476;28;20035;-75
2022/06/01 15:21:51;;;;;;;0.40;0.40;;;;;;;18.63;100.00;101456.25;10275205;28;20134;-75
2022/06/01 15:26:51;;;;;;;0.70;0.60;;;;;;;19.29;100.00;101447.13;10291587;28;20054;-77
2022/06/01 15:42:30;;;;;;;2.70;2.00;;;;;;;17.76;100.00;101477.28;10264471;28;20043;-77
2022/06/01 15:47:30;;;;;;;2.80;2.60;;;;;;;16.38;100.00;101486.03;10261173;28;20047;-77
2022/06/01 15:52:32;;;;;;;9.27;3.40;;;;;;;15.15;100.00;101500.44;10278297;28;20039;-75
2022/06/01 15:57:32;;;;;;;7.50;5.40;;;;;;;14.33;100.00;101497.13;10280269;28;20062;-77
2022/06/01 16:02:33;;;;;;;7.10;5.13;;;;;;;13.68;100.00;101501.72;10292176;28;20059;-76
2022/06/01 16:07:33;;;;;;;7.88;6.20;;;;;;;13.45;100.00;101498.16;10280771;28;20426;-76
2022/06/01 16:12:34;;;;;;;6.53;5.80;;;;;;;13.43;100.00;101500.34;10265562;28;20075;-78
2022/06/01 16:17:36;;;;;;;7.50;6.55;;;;;;;13.39;100.00;101498.34;10251472;28;20043;-76
2022/06/01 16:22:37;;;;;;;7.45;6.55;;;;;;;13.28;100.00;101506.50;10260291;28;20066;-82
2022/06/01 16:27:37;;;;;;;6.75;6.07;;;;;;;13.21;100.00;101503.09;10258681;28;20060;-80
2022/06/01 16:32:43;;;;;;;7.70;6.30;;;;;;;13.28;100.00;101497.38;10274261;28;20035;-77
2022/06/01 16:37:43;;;;;;;6.72;5.63;;;;;;;13.33;100.00;101514.03;10243232;28;20047;-78
2022/06/01 16:42:46;;;;;;;5.45;4.95;;;;;;;13.27;100.00;101506.75;10276025;28;20042;-78
2022/06/01 16:47:47;;;;;;;6.25;4.72;;;;;;;13.31;100.00;101525.38;10240942;28;20460;-78
2022/06/01 16:52:47;;;;;;;5.05;4.55;;;;;;;13.59;100.00;101519.91;10285791;28;20050;-79
2022/06/01 16:57:47;;;;;;;4.20;3.30;;;;;;;14.18;100.00;101500.59;10247086;28;20082;-79
2022/06/01 17:02:48;;;;;;;5.22;2.70;;;;;;;14.83;100.00;101529.09;10273066;28;20041;-79
2022/06/01 17:07:51;;;;;;;4.55;3.28;;;;;;;14.56;100.00;101537.50;10290537;28;20047;-78
2022/06/01 17:12:52;;;;;;;4.15;3.40;;;;;;;14.27;100.00;101532.22;10296613;28;20046;-80
2022/06/01 17:17:54;;;;;;;7.40;4.30;;;;;;;14.07;100.00;101537.56;10293613;28;20042;-80
2022/06/01 17:22:54;;;;;;;5.18;3.55;;;;;;;14.05;100.00;101548.06;10275564;28;20059;-82
2022/06/01 17:27:55;;;;;;;4.50;2.70;;;;;;;13.87;100.00;101533.50;10294961;28;20102;-83
2022/06/01 17:32:56;;;;;;;3.75;2.88;;;;;;;13.63;100.00;101548.72;10274899;28;20035;-84
2022/06/01 17:37:56;;;;;;;3.10;2.80;;;;;;;13.48;100.00;101546.59;10276162;28;20102;-80
2022/06/01 17:42:57;;;;;;;3.33;3.03;;;;;;;13.48;100.00;101552.97;10294127;28;20042;-84
2022/06/01 17:48:00;;;;;;;7.43;4.00;;;;;;;13.60;100.00;101552.84;10277486;28;20491;-81
2022/06/01 17:53:02;;;;;;;3.30;2.75;;;;;;;13.71;100.00;101551.03;10277557;28;20073;-86
2022/06/01 17:58:04;;;;;;;7.03;3.92;;;;;;;13.68;100.00;101557.06;10294990;28;20031;-83
2022/06/01 18:03:05;;;;;;;6.25;3.60;;;;;;;13.61;100.00;101564.75;10235010;28;20055;-82
2022/06/01 18:08:12;;;;;;;4.07;3.65;;;;;;;13.51;100.00;101548.84;10235839;28;20054;-85
2022/06/01 18:13:12;;;;;;;4.20;3.58;;;;;;;13.39;100.00;101571.09;10254163;29;20042;-84
2022/06/01 18:18:14;;;;;;;4.68;3.60;;;;;;;13.15;100.00;101586.19;10236056;29;20050;-84
2022/06/01 18:23:16;;;;;;;5.32;3.13;;;;;;;12.93;100.00;101581.47;10235963;29;20055;-85
2022/06/01 18:28:19;;;;;;;3.95;3.55;;;;;;;12.69;100.00;101589.94;10254242;29;20067;-87
2022/06/01 18:33:19;;;;;;;4.13;3.45;;;;;;;12.42;100.00;101586.16;10283414;28;20042;-87
2022/06/01 18:38:20;;;;;;;5.10;4.47;;;;;;;12.24;100.00;101596.34;10279534;28;20294;-86
2022/06/01 18:43:22;;;;;;;5.22;4.25;;;;;;;12.00;100.00;101587.31;10291676;28;20101;-86
2022/06/01 18:48:22;;;;;;;5.50;4.72;;;;;;;12.00;100.00;101603.06;10259240;28;20565;-86
2022/06/01 18:53:23;;;;;;;6.22;4.70;;;;;;;11.89;100.00;101602.84;10313244;28;20074;-88
2022/06/01 18:58:24;;;;;;;7.75;4.70;;;;;;;11.69;100.00;101610.66;10310145;28;20050;-89
2022/06/01 19:03:24;;;;;;;8.27;5.85;;;;;;;11.41;100.00;101601.28;10314025;28;20483;-88
2022/06/01 19:08:29;;;;;;;6.25;5.15;;;;;;;11.24;100.00;101616.84;10297672;28;20042;-89
2022/06/01 19:13:30;;;;;;;5.65;4.22;;;;;;;11.07;100.00;101614.00;10298353;28;20047;-89
2022/06/01 19:18:31;;;;;;;6.35;4.30;;;;;;;11.08;100.00;101630.28;10312702;28;20050;-86
2022/06/01 19:23:32;;;;;;;5.75;4.30;;;;;;;11.00;100.00;101638.91;10303672;28;20045;-88
2022/06/01 19:28:33;;;;;;;5.10;4.07;;;;;;;10.89;100.00;101654.34;10330779;28;20042;-86
2022/06/01 19:33:34;;;;;;;7.80;5.43;;;;;;;10.70;100.00;101659.09;10265858;28;20114;-88
2022/06/01 19:44:05;;;;;;;8.27;6.63;;;;;;;10.42;100.00;101661.66;10283380;28;20034;-88
2022/06/01 19:49:08;;;;;;;10.10;7.53;;;;;;;10.31;100.00;101668.78;10299890;28;20043;-88
2022/06/01 19:54:08;;;;;;;9.38;7.50;;;;;;;10.13;100.00;101663.28;10300189;28;20038;-86
2022/06/01 19:59:10;;;;;;;11.10;8.40;;;;;;;10.08;100.00;101678.56;10266212;28;20038;-86
2022/06/01 20:04:10;;;;;;;12.45;9.88;;;;;;;10.04;100.00;101696.63;10281295;28;20043;-87
2022/06/01 20:09:11;;;;;;;19.15;12.10;;;;;;;9.97;100.00;101692.28;10296830;28;20046;-87
2022/06/01 20:14:11;;;;;;;13.27;11.77;;;;;;;9.76;100.00;101683.44;10296120;28;20042;-87
2022/06/01 20:19:12;;;;;;;14.75;12.63;;;;;;;9.80;100.00;101712.16;10281159;28;20038;-87
2022/06/01 20:24:14;;;;;;;14.65;12.15;;;;;;;9.70;100.00;101717.34;10316755;28;20547;-86
2022/06/01 20:29:14;;;;;;;18.13;12.32;;;;;;;9.66;100.00;101727.13;10294540;28;20063;-87
2022/06/01 20:34:15;;;;;;;16.10;12.65;;;;;;;9.55;100.00;101720.47;10302999;28;20043;-87
2022/06/01 20:39:15;;;;;;;17.15;12.60;;;;;;;9.57;100.00;101733.94;10294029;28;20043;-88
2022/06/01 20:44:16;;;;;;;15.93;12.68;;;;;;;9.56;100.00;101740.53;10299094;28;20461;-87
2022/06/01 20:49:17;;;;;;;18.67;14.10;;;;;;;9.58;100.00;101757.66;10262707;28;20061;-87
2022/06/01 20:54:18;;;;;;;18.20;14.10;;;;;;;9.60;100.00;101750.00;10275771;28;20051;-87
2022/06/01 20:59:18;;;;;;;16.77;12.50;;;;;;;9.57;100.00;101739.44;10292887;28;20062;-88
2022/06/01 21:04:18;;;;;;;18.48;13.65;;;;;;;9.69;100.00;101755.00;10264956;28;20039;-86
2022/06/01 21:09:19;;;;;;;16.27;12.48;;;;;;;9.69;100.00;101763.25;10262473;28;20392;-87
2022/06/01 21:14:21;;;;;;;15.07;11.10;;;;;;;9.69;100.00;101762.38;10309837;28;20530;-87
2022/06/01 21:19:22;;;;;;;14.50;11.85;;;;;;;9.63;100.00;101766.03;10258884;28;20058;-87
2022/06/01 21:24:22;;;;;;;12.10;10.00;;;;;;;9.49;100.00;101763.44;10278482;28;20034;-85
2022/06/01 21:29:22;;;;;;;19.13;12.18;;;;;;;9.53;100.00;101771.22;10261179;28;20050;-86
2022/06/01 21:34:23;;;;;;;15.52;10.88;;;;;;;9.41;100.00;101782.94;10294883;28;20358;-85
2022/06/01 21:39:23;;;;;;;14.35;10.68;;;;;;;9.33;100.00;101788.72;10233537;28;20054;-86
2022/06/01 21:44:24;;;;;;;15.30;9.48;;;;;;;9.25;100.00;101802.75;10276038;28;20041;-86
2022/06/01 21:49:25;;;;;;;16.23;9.13;;;;;;;9.19;100.00;101793.47;10245244;28;20495;-86
2022/06/01 21:54:26;;;;;;;12.02;8.23;;;;;;;9.15;100.00;101791.41;10276894;28;20113;-85
2022/06/01 21:59:26;;;;;;;11.43;6.82;;;;;;;9.11;100.00;101795.66;10260226;28;20098;-86
2022/06/01 22:04:27;;;;;;;9.52;7.22;;;;;;;9.02;100.00;101795.91;10260106;28;20126;-84
2022/06/01 22:09:28;;;;;;;11.82;8.05;;;;;;;8.97;100.00;101801.25;10259197;28;20053;-84
2022/06/01 22:14:28;;;;;;;13.27;8.18;;;;;;;8.87;100.00;101800.88;10275803;28;20047;-85
2022/06/01 22:19:29;;;;;;;11.00;8.30;;;;;;;8.76;100.00;101804.31;10244352;28;20047;-84
2022/06/01 22:24:29;;;;;;;12.15;7.80;;;;;;;8.66;100.00;101816.63;10276520;28;20043;-85
2022/06/01 22:29:31;;;;;;;14.82;8.70;;;;;;;8.51;100.00;101805.06;10260811;28;20525;-86
2022/06/01 22:37:14;;;;;;;13.50;8.80;;;;;;;8.48;100.00;101814.59;10276295;28;20085;-88
2022/06/01 22:39:54;;;;;;;14.60;8.85;;;;;;;8.36;100.00;101799.00;10271520;28;20610;-88
2022/06/01 22:45:04;;;;;;;12.60;8.05;;;;;;;8.37;100.00;101817.13;10254019;28;20053;-85
2022/06/01 22:50:08;;;;;;;14.55;8.80;;;;;;;8.35;100.00;101816.50;10254643;28;20034;-85
2022/06/01 22:55:09;;;;;;;14.13;9.07;;;;;;;8.18;100.00;101814.22;10274947;28;20042;-84
2022/06/01 23:00:12;;;;;;;13.20;8.77;;;;;;;8.05;100.00;101817.00;10288082;28;20038;-84
2022/06/01 23:05:14;;;;;;;15.25;9.15;;;;;;;8.03;100.00;101835.59;10258663;28;20130;-87
2022/06/01 23:10:15;;;;;;;12.45;8.40;;;;;;;7.95;100.00;101830.31;10230123;28;20043;-85
2022/06/01 23:15:15;;;;;;;16.63;9.68;;;;;;;7.88;100.00;101838.56;10286396;28;20534;-87
2022/06/01 23:20:26;;;;;;;14.65;9.88;;;;;;;7.83;100.00;101852.91;10293949;28;20031;-87
2022/06/01 23:25:27;;;;;;;14.95;9.85;;;;;;;7.78;100.00;101852.69;10258690;28;20030;-87
2022/06/01 23:30:49;;;;;;;15.50;9.43;;;;;;;7.72;100.00;101848.06;10274589;28;20031;-88
2022/06/01 23:36:10;;;;;;;16.25;10.40;;;;;;;7.67;100.00;101850.59;10276160;28;20159;-86
2022/06/01 23:41:38;;;;;;;17.92;11.15;;;;;;;7.59;100.00;101848.91;10262897;28;20497;-86
2022/06/01 23:47:03;;;;;;;17.60;12.02;;;;;;;7.50;100.00;101843.84;10273742;28;20153;-87